createdAt,value
2019-03-13T00:01:34.032Z,99.90
2019-03-13T00:04:00.100Z,99.80
2019-03-13T00:06:26.142Z,99.60
2019-03-13T00:08:52.151Z,99.60
2019-03-13T00:11:18.308Z,99.90
2019-03-13T00:13:44.337Z,99.00
2019-03-13T00:16:10.740Z,99.40
2019-03-13T00:18:36.772Z,98.90
2019-03-13T00:21:02.891Z,98.40
2019-03-13T00:23:28.929Z,98.40
2019-03-13T00:25:54.962Z,98.50
2019-03-13T00:28:21.016Z,98.40
2019-03-13T00:30:47.040Z,98.40
2019-03-13T00:33:13.084Z,98.80
2019-03-13T00:35:39.122Z,98.90
2019-03-13T00:38:05.280Z,99.10
2019-03-13T00:40:31.307Z,99.30
2019-03-13T00:42:57.461Z,99.20
2019-03-13T00:45:23.472Z,99.10
2019-03-13T00:47:49.569Z,99.20
2019-03-13T00:50:26.990Z,98.90
2019-03-13T00:52:53.044Z,98.80
2019-03-13T00:55:19.214Z,99.20
2019-03-13T00:57:45.222Z,99.40
2019-03-13T01:00:13.297Z,99.30
2019-03-13T01:02:41.223Z,99.10
2019-03-13T01:05:12.432Z,98.90
2019-03-13T01:07:58.329Z,98.70
2019-03-13T01:10:24.370Z,98.40
2019-03-13T01:12:50.383Z,98.00
2019-03-13T01:15:16.416Z,98.40
2019-03-13T01:17:42.433Z,97.80
2019-03-13T01:20:08.864Z,97.90
2019-03-13T01:22:34.896Z,97.90
2019-03-13T01:25:01.675Z,98.60
2019-03-13T01:27:27.691Z,98.80
2019-03-13T01:29:53.828Z,99.20
2019-03-13T01:32:39.941Z,99.30
2019-03-13T01:35:07.983Z,99.90
2019-03-13T01:37:34.007Z,99.70
2019-03-13T01:40:00.032Z,99.80
2019-03-13T01:42:26.068Z,99.90
2019-03-13T01:44:52.080Z,99.90
2019-03-13T01:47:18.111Z,99.90
2019-03-13T01:49:44.128Z,99.90
2019-03-13T01:52:10.181Z,99.80
2019-03-13T01:54:36.208Z,99.70
2019-03-13T01:57:02.219Z,99.40
2019-03-13T01:59:28.241Z,99.40
2019-03-13T02:01:54.267Z,99.30
2019-03-13T02:04:20.288Z,99.80
2019-03-13T02:06:46.296Z,99.40
2019-03-13T02:09:12.336Z,99.40
2019-03-13T02:11:38.364Z,99.60
2019-03-13T02:14:04.412Z,99.70
2019-03-13T02:16:30.447Z,99.70
2019-03-13T02:18:56.588Z,99.40
2019-03-13T02:21:22.608Z,99.10
2019-03-13T02:23:48.656Z,98.80
2019-03-13T02:26:14.785Z,98.50
2019-03-13T02:29:01.169Z,98.70
2019-03-13T02:31:27.182Z,98.70
2019-03-13T02:33:53.214Z,99.10
2019-03-13T02:36:19.268Z,98.70
2019-03-13T02:38:45.375Z,98.60
2019-03-13T02:41:13.527Z,98.10
2019-03-13T02:43:39.549Z,98.40
2019-03-13T02:46:05.588Z,98.20
2019-03-13T02:48:31.704Z,97.90
2019-03-13T02:50:57.722Z,97.90
2019-03-13T02:53:23.763Z,97.70
2019-03-13T02:55:49.793Z,97.30
2019-03-13T02:58:16.945Z,97.30
2019-03-13T03:00:47.696Z,97.60
2019-03-13T03:03:27.279Z,97.50
2019-03-13T03:05:53.574Z,97.50
2019-03-13T03:08:19.601Z,96.90
2019-03-13T03:10:45.710Z,97.10
2019-03-13T03:13:11.744Z,96.90
2019-03-13T03:15:37.752Z,96.70
2019-03-13T03:18:03.791Z,96.70
2019-03-13T03:20:29.825Z,96.70
2019-03-13T03:22:55.839Z,96.80
2019-03-13T03:25:21.843Z,96.60
2019-03-13T03:27:47.857Z,96.60
2019-03-13T03:30:22.468Z,96.50
2019-03-13T03:32:48.937Z,96.40
2019-03-13T03:35:15.203Z,96.60
2019-03-13T03:37:41.239Z,96.60
2019-03-13T03:40:10.984Z,96.50
2019-03-13T03:42:37.107Z,96.40
2019-03-13T03:45:06.264Z,96.30
2019-03-13T03:47:32.277Z,96.60
2019-03-13T03:49:58.310Z,96.60
2019-03-13T03:52:24.325Z,96.10
2019-03-13T03:54:50.371Z,96.20
2019-03-13T03:57:16.404Z,96.60
2019-03-13T03:59:42.447Z,96.20
2019-03-13T04:02:08.495Z,96.10
2019-03-13T04:04:34.597Z,96.10
2019-03-13T04:07:00.612Z,96.00
2019-03-13T04:09:26.644Z,95.90
2019-03-13T04:11:52.660Z,96.20
2019-03-13T04:14:18.705Z,96.10
2019-03-13T04:16:44.712Z,96.30
2019-03-13T04:19:10.756Z,96.20
2019-03-13T04:21:36.767Z,96.10
2019-03-13T04:24:02.810Z,96.30
2019-03-13T04:26:28.809Z,96.40
2019-03-13T04:28:54.851Z,96.40
2019-03-13T04:31:20.852Z,96.50
2019-03-13T04:33:46.884Z,96.50
2019-03-13T04:36:12.906Z,96.40
2019-03-13T04:38:38.938Z,96.70
2019-03-13T04:41:04.976Z,96.30
2019-03-13T04:43:30.988Z,96.20
2019-03-13T04:45:57.015Z,96.20
2019-03-13T04:48:23.036Z,96.30
2019-03-13T04:50:49.057Z,96.50
2019-03-13T04:53:15.067Z,96.30
2019-03-13T04:55:41.137Z,96.70
2019-03-13T04:58:07.152Z,96.50
2019-03-13T05:00:33.484Z,96.50
2019-03-13T05:02:59.515Z,96.70
2019-03-13T05:05:40.362Z,96.70
2019-03-13T05:08:06.378Z,96.70
2019-03-13T05:10:32.406Z,97.30
2019-03-13T05:12:58.530Z,97.30
2019-03-13T05:15:24.676Z,97.30
2019-03-13T05:17:50.664Z,97.50
2019-03-13T05:20:16.705Z,97.50
2019-03-13T05:22:42.724Z,97.70
2019-03-13T05:25:08.755Z,97.60
2019-03-13T05:27:34.871Z,97.50
2019-03-13T05:30:01.712Z,97.90
2019-03-13T05:32:27.740Z,97.70
2019-03-13T05:34:53.867Z,97.80
2019-03-13T05:37:19.881Z,97.30
2019-03-13T05:39:45.969Z,97.30
2019-03-13T05:42:12.052Z,97.40
2019-03-13T05:44:38.085Z,97.40
2019-03-13T05:47:04.108Z,97.10
2019-03-13T05:49:30.123Z,96.90
2019-03-13T05:51:56.152Z,96.60
2019-03-13T05:54:22.163Z,96.70
2019-03-13T05:56:48.191Z,96.70
2019-03-13T05:59:14.226Z,96.90
2019-03-13T06:01:40.255Z,97.00
2019-03-13T06:04:06.267Z,96.80
2019-03-13T06:06:32.300Z,96.50
2019-03-13T06:08:58.313Z,96.60
2019-03-13T06:11:24.342Z,96.70
2019-03-13T06:13:50.351Z,96.10
2019-03-13T06:16:16.383Z,96.00
2019-03-13T06:18:42.404Z,95.90
2019-03-13T06:21:08.532Z,96.00
2019-03-13T06:23:34.548Z,96.00
2019-03-13T06:26:20.484Z,95.80
2019-03-13T06:28:46.502Z,95.70
2019-03-13T06:31:12.535Z,96.20
2019-03-13T06:33:38.563Z,95.90
2019-03-13T06:36:04.596Z,96.40
2019-03-13T06:38:30.608Z,96.00
2019-03-13T06:40:56.643Z,96.10
2019-03-13T06:43:22.660Z,96.00
2019-03-13T06:45:48.696Z,95.90
2019-03-13T06:48:14.715Z,95.40
2019-03-13T06:50:40.755Z,95.20
2019-03-13T06:53:06.779Z,95.00
2019-03-13T06:55:32.820Z,95.00
2019-03-13T06:57:58.908Z,94.80
2019-03-13T07:00:29.676Z,94.80
2019-03-13T07:03:00.939Z,95.00
2019-03-13T07:05:31.906Z,95.30
2019-03-13T07:08:02.655Z,95.10
2019-03-13T07:13:23.759Z,94.80
2019-03-13T07:15:54.521Z,95.00
2019-03-13T07:18:22.428Z,95.00
2019-03-13T07:21:11.415Z,94.80
2019-03-13T07:23:42.096Z,94.40
2019-03-13T07:26:10.032Z,94.50
2019-03-13T07:28:54.576Z,94.30
2019-03-13T07:31:22.522Z,94.50
2019-03-13T07:33:50.447Z,94.30
2019-03-13T07:36:36.370Z,94.40
2019-03-13T07:39:07.887Z,94.60
2019-03-13T07:41:35.880Z,94.30
2019-03-13T07:44:19.015Z,94.30
2019-03-13T07:46:52.627Z,94.20
2019-03-13T07:49:20.543Z,94.00
2019-03-13T07:52:01.744Z,94.40
2019-03-13T07:54:32.433Z,94.30
2019-03-13T07:57:03.157Z,94.70
2019-03-13T07:59:43.193Z,95.30
2019-03-13T08:02:19.751Z,95.60
2019-03-13T08:05:04.546Z,96.10
2019-03-13T08:07:32.494Z,96.50
2019-03-13T08:10:02.923Z,96.60
2019-03-13T08:12:30.872Z,97.00
2019-03-13T08:15:15.723Z,97.60
2019-03-13T08:18:00.367Z,97.70
2019-03-13T08:20:34.159Z,98.30
2019-03-13T08:23:13.827Z,97.80
2019-03-13T08:25:41.743Z,97.60
2019-03-13T08:28:09.680Z,97.60
2019-03-13T08:30:37.608Z,96.90
2019-03-13T08:33:08.210Z,96.10
2019-03-13T08:35:36.127Z,96.40
2019-03-13T08:38:13.145Z,96.10
2019-03-13T08:40:41.059Z,95.70
2019-03-13T08:45:54.332Z,95.00
2019-03-13T08:48:31.403Z,93.90
2019-03-13T08:51:08.023Z,94.10
2019-03-13T08:53:38.736Z,92.50
2019-03-13T08:56:18.431Z,93.60
2019-03-13T08:58:49.432Z,93.60
2019-03-13T09:04:06.179Z,93.90
2019-03-13T09:09:36.288Z,94.90
2019-03-13T09:12:16.335Z,95.10
2019-03-13T09:14:50.069Z,95.60
2019-03-13T09:17:34.645Z,96.30
2019-03-13T09:20:02.566Z,96.00
2019-03-13T09:22:33.251Z,95.60
2019-03-13T09:25:11.298Z,95.70
2019-03-13T09:27:31.013Z,95.30
2019-03-13T09:30:10.713Z,94.70
2019-03-13T09:32:44.472Z,94.90
2019-03-13T09:35:24.216Z,95.00
2019-03-13T09:37:57.975Z,95.00
2019-03-13T09:40:28.895Z,94.90
2019-03-13T09:42:59.387Z,94.90
2019-03-13T09:45:27.409Z,94.60
2019-03-13T09:48:04.417Z,94.70
2019-03-13T09:50:32.372Z,95.20
2019-03-13T09:53:06.020Z,95.00
2019-03-13T09:55:33.935Z,94.30
2019-03-13T09:58:04.700Z,94.70
2019-03-13T10:00:35.375Z,95.40
2019-03-13T10:03:19.927Z,95.00
2019-03-13T10:06:02.967Z,95.20
2019-03-13T10:08:30.902Z,95.70
2019-03-13T10:10:58.811Z,95.20
2019-03-13T10:13:29.551Z,94.30
2019-03-13T10:15:57.467Z,93.50
2019-03-13T10:18:37.483Z,92.70
2019-03-13T10:21:05.401Z,91.90
2019-03-13T10:23:51.745Z,91.70
2019-03-13T10:26:28.503Z,92.30
2019-03-13T10:28:56.448Z,92.20
2019-03-13T10:31:39.687Z,92.50
2019-03-13T10:34:19.702Z,92.60
2019-03-13T10:36:53.749Z,92.70
2019-03-13T10:39:24.212Z,92.60
2019-03-13T10:42:08.473Z,91.20
2019-03-13T10:44:51.492Z,90.50
2019-03-13T10:47:34.326Z,90.40
2019-03-13T10:50:05.017Z,90.20
2019-03-13T10:52:38.508Z,90.40
2019-03-13T10:57:48.613Z,88.60
2019-03-13T11:00:16.553Z,87.30
2019-03-13T11:02:56.351Z,88.40
2019-03-13T11:05:30.302Z,87.30
2019-03-13T11:08:03.789Z,88.30
2019-03-13T11:10:34.245Z,88.20
2019-03-13T11:13:18.844Z,88.70
2019-03-13T11:16:03.494Z,88.90
2019-03-13T11:18:40.078Z,88.40
2019-03-13T11:21:23.148Z,86.10
2019-03-13T11:23:53.908Z,86.10
2019-03-13T11:26:21.843Z,86.60
2019-03-13T11:28:52.852Z,84.40
2019-03-13T11:31:23.408Z,86.40
2019-03-13T11:33:57.290Z,85.60
2019-03-13T11:39:43.041Z,88.10
2019-03-13T11:42:11.107Z,90.60
2019-03-13T11:44:50.883Z,91.20
2019-03-13T11:47:21.595Z,91.20
2019-03-13T11:50:04.328Z,91.90
2019-03-13T11:52:34.771Z,91.70
2019-03-13T11:55:20.717Z,91.70
2019-03-13T11:57:48.631Z,93.10
2019-03-13T12:00:34.446Z,93.10
2019-03-13T12:03:04.915Z,92.10
2019-03-13T12:05:32.891Z,93.10
2019-03-13T12:08:00.815Z,92.30
2019-03-13T12:10:45.224Z,91.90
2019-03-13T12:15:50.155Z,90.40
2019-03-13T12:18:18.085Z,90.70
2019-03-13T12:20:59.455Z,90.00
2019-03-13T12:23:33.510Z,90.90
2019-03-13T12:26:36.297Z,91.70
2019-03-13T12:29:13.151Z,92.30
2019-03-13T12:31:59.450Z,92.50
2019-03-13T12:34:30.154Z,92.90
2019-03-13T12:37:06.632Z,94.00
2019-03-13T12:39:43.556Z,93.00
2019-03-13T12:42:23.562Z,93.40
2019-03-13T12:44:54.511Z,93.50
2019-03-13T12:47:25.215Z,93.00
2019-03-13T12:49:53.148Z,92.90
2019-03-13T12:52:21.079Z,92.60
2019-03-13T12:55:05.667Z,91.20
2019-03-13T12:57:36.141Z,91.60
2019-03-13T13:00:18.296Z,91.60
2019-03-13T13:02:46.235Z,91.10
2019-03-13T13:05:16.895Z,90.60
2019-03-13T13:07:44.824Z,90.80
2019-03-13T13:10:25.763Z,91.50
2019-03-13T13:12:59.255Z,90.30
2019-03-13T13:15:27.168Z,91.80
2019-03-13T13:18:11.508Z,91.90
2019-03-13T13:20:37.520Z,92.50
2019-03-13T13:23:03.551Z,92.60
2019-03-13T13:25:29.603Z,93.30
2019-03-13T13:27:55.655Z,93.00
2019-03-13T13:30:21.793Z,93.00
2019-03-13T13:32:47.821Z,92.60
2019-03-13T13:35:13.836Z,93.00
2019-03-13T13:37:39.940Z,92.00
2019-03-13T13:40:09.473Z,92.40
2019-03-13T13:42:35.596Z,92.70
2019-03-13T13:45:03.710Z,92.40
2019-03-13T13:47:29.740Z,93.00
2019-03-13T13:50:00.012Z,92.60
2019-03-13T13:52:23.695Z,92.50
2019-03-13T13:54:49.757Z,92.60
2019-03-13T13:57:15.783Z,93.00
2019-03-13T13:59:41.799Z,92.80
2019-03-13T14:02:07.831Z,93.30
2019-03-13T14:04:33.847Z,93.60
2019-03-13T14:06:59.971Z,92.70
2019-03-13T14:09:25.990Z,92.70
2019-03-13T14:11:52.028Z,92.90
2019-03-13T14:14:18.058Z,93.10
2019-03-13T14:16:44.511Z,92.60
2019-03-13T14:19:10.527Z,92.80
2019-03-13T14:21:36.576Z,92.90
2019-03-13T14:24:04.044Z,92.70
2019-03-13T14:26:30.110Z,92.50
2019-03-13T14:28:56.129Z,92.30
2019-03-13T14:31:22.171Z,92.40
2019-03-13T14:33:48.466Z,91.80
2019-03-13T14:36:14.495Z,91.30
2019-03-13T14:38:40.516Z,90.70
2019-03-13T14:41:06.552Z,90.30
2019-03-13T14:43:32.596Z,89.40
2019-03-13T14:45:58.607Z,88.30
2019-03-13T14:48:24.639Z,88.40
2019-03-13T14:50:50.656Z,89.10
2019-03-13T14:53:16.691Z,87.10
2019-03-13T14:55:42.706Z,86.40
2019-03-13T14:58:08.739Z,85.70
2019-03-13T15:00:34.751Z,84.30
2019-03-13T15:03:01.190Z,86.10
2019-03-13T15:05:27.327Z,88.00
2019-03-13T15:07:53.399Z,89.60
2019-03-13T15:10:20.680Z,90.50
2019-03-13T15:12:47.055Z,90.90
2019-03-13T15:15:14.685Z,90.90
2019-03-13T15:17:40.714Z,91.30
2019-03-13T15:20:12.555Z,91.30
2019-03-13T15:22:38.595Z,91.30
2019-03-13T15:25:06.712Z,91.60
2019-03-13T15:27:32.752Z,91.90
2019-03-13T15:29:58.795Z,91.80
2019-03-13T15:32:24.855Z,92.00
2019-03-13T15:34:50.879Z,92.40
2019-03-13T15:37:16.896Z,92.20
2019-03-13T15:39:42.939Z,92.50
2019-03-13T15:42:08.951Z,92.50
2019-03-13T15:44:34.995Z,93.00
2019-03-13T15:47:02.279Z,93.70
2019-03-13T15:49:28.339Z,93.60
2019-03-13T15:51:54.351Z,94.20
2019-03-13T15:54:20.399Z,94.20
2019-03-13T15:56:46.416Z,94.80
2019-03-13T15:59:12.491Z,95.20
2019-03-13T16:01:38.605Z,95.80
2019-03-13T16:04:04.639Z,96.50
2019-03-13T16:06:30.655Z,96.40
2019-03-13T16:08:56.703Z,96.70
2019-03-13T16:11:22.726Z,97.40
2019-03-13T16:13:48.759Z,98.00
2019-03-13T16:16:14.859Z,98.30
2019-03-13T16:18:40.900Z,98.50
2019-03-13T16:21:06.924Z,98.50
2019-03-13T16:23:32.953Z,98.70
2019-03-13T16:25:58.981Z,99.90
2019-03-13T16:28:25.023Z,99.90
2019-03-13T16:30:52.978Z,99.90
2019-03-13T16:33:19.006Z,99.90
2019-03-13T16:35:45.025Z,99.90
2019-03-13T16:38:11.118Z,99.90
2019-03-13T16:40:37.132Z,99.90
2019-03-13T16:43:03.244Z,99.90
2019-03-13T16:45:29.300Z,99.90
2019-03-13T16:47:55.308Z,99.90
2019-03-13T16:50:26.723Z,99.90
2019-03-13T16:52:52.731Z,99.90
2019-03-13T16:55:19.580Z,99.90
2019-03-13T16:57:45.700Z,99.90
2019-03-13T17:00:18.272Z,99.90
2019-03-13T17:02:44.291Z,99.90
2019-03-13T17:05:15.548Z,99.90
2019-03-13T17:07:41.565Z,99.90
2019-03-13T17:10:10.926Z,99.90
2019-03-13T17:12:36.920Z,99.90
2019-03-13T17:15:05.964Z,99.90
2019-03-13T17:17:31.983Z,99.90
2019-03-13T17:19:58.029Z,99.90
2019-03-13T17:22:24.034Z,99.90
2019-03-13T17:24:50.078Z,99.90
2019-03-13T17:27:16.087Z,99.90
2019-03-13T17:29:42.179Z,99.90
2019-03-13T17:32:08.192Z,99.90
2019-03-13T17:34:34.232Z,99.90
2019-03-13T17:37:00.305Z,99.90
2019-03-13T17:39:26.367Z,99.90
2019-03-13T17:41:52.395Z,99.90
2019-03-13T17:44:18.438Z,99.90
2019-03-13T17:46:44.466Z,99.90
2019-03-13T17:49:10.563Z,99.90
2019-03-13T17:51:36.591Z,99.90
2019-03-13T17:54:02.949Z,99.90
2019-03-13T17:56:28.961Z,99.90
2019-03-13T17:58:55.001Z,99.90
2019-03-13T18:01:21.061Z,99.90
2019-03-13T18:03:49.848Z,99.90
2019-03-13T18:06:15.064Z,99.90
2019-03-13T18:08:41.092Z,99.90
2019-03-13T18:11:07.131Z,99.90
2019-03-13T18:13:33.145Z,99.90
2019-03-13T18:15:59.248Z,99.90
2019-03-13T18:18:25.276Z,99.90
2019-03-13T18:20:51.415Z,99.90
2019-03-13T18:23:17.441Z,99.90
2019-03-13T18:26:03.364Z,99.90
2019-03-13T18:28:29.381Z,99.90
2019-03-13T18:30:55.419Z,99.90
2019-03-13T18:33:21.447Z,99.90
2019-03-13T18:35:47.584Z,99.90
2019-03-13T18:38:13.703Z,99.90
2019-03-13T18:40:39.755Z,99.90
2019-03-13T18:43:05.911Z,99.90
2019-03-13T18:45:33.360Z,99.90
2019-03-13T18:47:59.381Z,99.90
2019-03-13T18:50:26.043Z,99.90
2019-03-13T18:52:52.140Z,99.90
2019-03-13T18:55:26.518Z,99.90
2019-03-13T18:57:52.547Z,99.90
2019-03-13T19:00:21.182Z,99.90
2019-03-13T19:02:47.711Z,99.90
2019-03-13T19:05:13.956Z,99.90
2019-03-13T19:07:39.975Z,99.90
2019-03-13T19:10:32.681Z,99.90
2019-03-13T19:12:58.799Z,99.90
2019-03-13T19:15:24.957Z,99.90
2019-03-13T19:17:51.091Z,99.90
2019-03-13T19:20:21.912Z,99.90
2019-03-13T19:22:48.031Z,99.90
2019-03-13T19:25:14.810Z,99.90
2019-03-13T19:27:40.891Z,99.90
2019-03-13T19:30:13.432Z,99.90
2019-03-13T19:32:39.452Z,99.90
2019-03-13T19:35:06.692Z,99.90
2019-03-13T19:37:32.708Z,99.90
2019-03-13T19:39:58.719Z,99.90
2019-03-13T19:42:24.759Z,99.90
2019-03-13T19:44:50.767Z,99.90
2019-03-13T19:47:16.828Z,99.90
2019-03-13T19:49:42.867Z,99.90
2019-03-13T19:52:08.932Z,99.90
2019-03-13T19:54:34.950Z,99.90
2019-03-13T19:57:02.012Z,99.90
2019-03-13T19:59:28.020Z,99.90
2019-03-13T20:01:54.159Z,99.90
2019-03-13T20:04:20.186Z,99.90
2019-03-13T20:06:46.236Z,99.90
2019-03-13T20:09:12.252Z,99.90
2019-03-13T20:11:38.334Z,99.90
2019-03-13T20:14:04.348Z,99.90
2019-03-13T20:16:30.416Z,99.90
2019-03-13T20:18:56.431Z,99.90
2019-03-13T20:21:22.467Z,99.90
2019-03-13T20:23:48.491Z,99.90
2019-03-13T20:26:16.543Z,99.90
2019-03-13T20:28:42.557Z,99.90
2019-03-13T20:31:08.695Z,99.90
2019-03-13T20:33:34.716Z,99.90
2019-03-13T20:36:01.890Z,99.90
2019-03-13T20:38:28.012Z,99.90
2019-03-13T20:40:54.051Z,99.90
2019-03-13T20:43:20.064Z,99.90
2019-03-13T20:45:46.100Z,99.90
2019-03-13T20:48:12.195Z,99.90
2019-03-13T20:50:38.360Z,99.90
2019-03-13T20:53:04.565Z,99.90
2019-03-13T20:55:30.579Z,99.90
2019-03-13T20:57:56.636Z,99.90
2019-03-13T21:00:23.632Z,99.90
2019-03-13T21:02:50.881Z,99.90
2019-03-13T21:05:17.108Z,99.90
2019-03-13T21:07:43.162Z,99.90
2019-03-13T21:10:10.271Z,99.90
2019-03-13T21:12:36.316Z,99.90
2019-03-13T21:15:04.364Z,99.90
2019-03-13T21:17:30.411Z,99.90
2019-03-13T21:19:56.428Z,99.90
2019-03-13T21:22:22.467Z,99.90
2019-03-13T21:24:48.562Z,99.90
2019-03-13T21:27:34.485Z,99.90
2019-03-13T21:30:00.510Z,99.90
2019-03-13T21:32:26.548Z,99.90
2019-03-13T21:34:52.568Z,99.90
2019-03-13T21:37:18.659Z,99.90
2019-03-13T21:39:44.671Z,99.90
2019-03-13T21:42:10.824Z,99.90
2019-03-13T21:44:36.831Z,99.90
2019-03-13T21:47:02.863Z,99.90
2019-03-13T21:49:28.947Z,99.90
2019-03-13T21:51:55.029Z,99.90
2019-03-13T21:54:21.113Z,99.90
2019-03-13T21:56:47.576Z,99.90
2019-03-13T21:59:13.653Z,99.90
2019-03-13T22:01:39.682Z,99.90
2019-03-13T22:04:07.880Z,99.90
2019-03-13T22:06:33.785Z,99.90
2019-03-13T22:08:59.799Z,99.90
2019-03-13T22:11:25.943Z,99.90
2019-03-13T22:13:51.980Z,99.90
2019-03-13T22:16:18.014Z,99.90
2019-03-13T22:18:44.031Z,99.90
2019-03-13T22:21:10.091Z,99.90
2019-03-13T22:23:36.220Z,99.90
2019-03-13T22:26:02.260Z,99.90
2019-03-13T22:28:28.289Z,99.90
2019-03-13T22:30:54.319Z,99.90
2019-03-13T22:33:20.351Z,99.90
2019-03-13T22:35:46.375Z,99.90
2019-03-13T22:38:12.467Z,99.90
2019-03-13T22:40:38.512Z,99.90
2019-03-13T22:43:04.540Z,99.90
2019-03-13T22:45:30.563Z,99.90
2019-03-13T22:47:56.594Z,99.90
2019-03-13T22:50:23.312Z,99.90
2019-03-13T22:52:49.457Z,99.90
2019-03-13T22:55:15.891Z,99.90
2019-03-13T22:57:41.911Z,99.90
2019-03-13T23:00:12.432Z,99.90
2019-03-13T23:02:38.563Z,99.90
2019-03-13T23:05:04.872Z,99.90
2019-03-13T23:07:32.395Z,99.90
2019-03-13T23:09:58.540Z,99.90
2019-03-13T23:12:24.653Z,99.90
2019-03-13T23:14:50.750Z,99.90
2019-03-13T23:17:16.899Z,99.90
2019-03-13T23:19:42.916Z,99.90
2019-03-13T23:22:08.955Z,99.90
2019-03-13T23:24:37.931Z,99.90
2019-03-13T23:27:02.906Z,99.90
2019-03-13T23:29:28.931Z,99.90
2019-03-13T23:31:54.991Z,99.90
2019-03-13T23:34:21.033Z,99.90
2019-03-13T23:36:47.064Z,99.90
2019-03-13T23:39:13.131Z,99.90
2019-03-13T23:41:39.185Z,99.90
2019-03-13T23:44:05.183Z,99.90
2019-03-13T23:46:31.223Z,99.90
2019-03-13T23:48:57.232Z,99.90
2019-03-13T23:51:24.122Z,99.90
2019-03-13T23:53:50.132Z,99.90
2019-03-13T23:56:16.163Z,99.90
2019-03-13T23:58:42.176Z,99.90
